Latest Coastal Weather Observations for Green Cape

IDN60701

Issued at 8:55 am EST Friday 25 July 2014 (issued every 10 minutes, with the page automatically refreshed every 10 minutes)

About coastal observations | Map of coastal stations | Coastal observations for NSW | Marine services | Other Formats
Station Details ID: 069137 Name: GREEN CAPE AWS Lat: -37.26 Lon: 150.05 Height: 19.4 m
Data from the previous 72 hours. | See also: Recent months at Green Cape
Date/Time
EST
Temp

°C
Wind Pressure Rain
since 9am
mm
Weather Cloud Vis
km
Sea
Height
m
Swell
Dir
 
Speed
knots
Gust
knots
hPa Trend Height
m
Period
s
Dir
25/08:30am 10.7 W 5 6 1018.5 - 0.0 - - - - - - -
25/08:00am 10.9 WNW 4 5 1018.3 - 0.0 - - - - - - -
25/07:30am 10.5 NNW 2 2 1018.0 - 0.0 - - - - - - -
25/07:00am 10.7 W 4 5 1018.0 - 0.0 - - - - - - -
25/06:30am 11.7 N 2 3 1017.9 - 0.0 - - - - - - -
25/06:00am 11.6 N 3 4 1017.6 - 0.0 - - - - - - -
25/05:30am 12.0 N 3 4 1017.4 - 0.0 - - - - - - -
25/05:00am 11.2 NW 3 4 1017.2 - 0.0 - - - - - - -
25/04:30am 11.7 WNW 4 5 1017.3 - 0.0 - - - - - - -
25/04:00am 12.5 NNW 5 6 1017.4 - 0.0 - - - - - - -
25/03:30am 12.7 N 5 6 1017.2 - 0.0 - - - - - - -
25/03:00am 12.2 N 6 7 1017.2 - 0.0 - - - - - - -
25/02:30am 12.4 WNW 2 3 1017.2 - 0.0 - - - - - - -
25/02:00am 12.9 N 5 6 1017.4 - 0.0 - - - - - - -
25/01:30am 13.1 N 4 6 1017.6 - 0.0 - - - - - - -
25/01:00am 13.3 N 4 5 1017.6 - 0.0 - - - - - - -
25/12:30am 13.3 N 6 7 1017.6 - 0.0 - - - - - - -
25/12:00am 13.4 NNW 5 8 1017.9 - 0.0 - - - - - - -
 
Date/Time
EST
Temp

°C
Wind Pressure Rain
since 9am
mm
Weather Cloud Vis
km
Sea
Height
m
Swell
Dir
 
Speed
knots
Gust
knots
hPa Trend Height
m
Period
s
Dir
24/11:30pm 13.5 N 7 9 1017.9 - 0.0 - - - - - - -
24/11:00pm 13.1 N 7 8 1018.2 - 0.0 - - - - - - -
24/10:30pm 12.8 N 5 5 1018.4 - 0.0 - - - - - - -
24/10:00pm 13.1 N 6 7 1018.4 - 0.0 - - - - - - -
24/09:30pm 13.1 N 7 10 1018.4 - 0.0 - - - - - - -
24/09:00pm 13.5 N 9 11 1018.4 - 0.0 - - - - - - -
24/08:30pm 13.7 N 8 10 1018.4 - 0.0 - - - - - - -
24/08:00pm 14.1 N 7 9 1018.4 - 0.0 - - - - - - -
24/07:30pm 14.3 N 9 10 1018.3 - 0.0 - - - - - - -
24/07:00pm 14.5 N 10 13 1018.1 - 0.0 - - - - - - -
24/06:30pm 14.5 N 7 10 1018.0 - 0.0 - - - - - - -
24/06:00pm 14.7 N 14 17 1017.8 - 0.0 - - - - - - -
24/05:30pm 14.7 N 17 20 1017.4 - 0.0 - - - - - - -
24/05:00pm 14.8 N 16 20 1017.4 - 0.0 - - - - - - -
24/04:30pm 15.0 N 19 21 1016.9 - 0.0 - - - - - - -
24/04:00pm 15.0 N 19 21 1016.5 - 0.0 - - - - - - -
24/03:30pm 15.0 N 19 22 1016.5 - 0.0 - - - - - - -
24/03:00pm 15.1 N 19 22 1016.7 - 0.0 - - - - - - -
24/02:30pm 15.0 N 20 23 1016.8 - 0.0 - - - - - - -
24/02:00pm 15.0 N 21 24 1017.1 - 0.0 - - - - - - -
24/01:30pm 15.1 N 21 24 1017.3 - 0.0 - - - - - - -
24/01:00pm 15.1 N 20 25 1017.5 - 0.0 - - - - - - -
24/12:30pm 14.7 N 14 18 1018.2 - 0.0 - - - - - - -
24/12:00pm 14.4 N 15 18 1018.8 - 0.0 - - - - - - -
24/11:30am 14.9 N 15 18 1019.4 - 0.0 - - - - - - -
24/11:00am 13.5 N 14 17 1019.9 - 0.0 - - - - - - -
24/10:30am 13.7 N 12 14 1020.1 - 0.0 - - - - - - -
24/10:00am 13.6 N 11 12 1020.4 - 0.0 - - - - - - -
24/09:30am 13.6 N 8 10 1020.3 - 0.0 - - - - - - -
24/09:00am 13.2 N 7 9 1020.3 - 0.0 - - - - - - -
24/08:30am 10.9 NNW 4 5 1020.3 - 0.0 - - - - - - -
24/08:00am 9.2 NW 3 4 1020.2 - 0.0 - - - - - - -
24/07:30am 9.4 NW 5 7 1020.1 - 0.0 - - - - - - -
24/07:00am 10.4 N 7 9 1020.0 - 0.0 - - - - - - -
24/06:30am 10.7 N 7 9 1019.9 - 0.0 - - - - - - -
24/06:00am 10.2 N 5 6 1019.8 - 0.0 - - - - - - -
24/05:30am 9.6 NW 3 5 1019.8 - 0.0 - - - - - - -
24/05:00am 9.7 NW 3 4 1019.7 - 0.0 - - - - - - -
24/04:30am 10.2 N 5 6 1019.8 - 0.0 - - - - - - -
24/04:00am 10.2 N 4 5 1019.7 - 0.0 - - - - - - -
24/03:30am 10.2 N 4 5 1019.7 - 0.0 - - - - - - -
24/03:00am 10.2 N 4 5 1019.8 - 0.0 - - - - - - -
24/02:30am 10.3 N 5 7 1020.0 - 0.0 - - - - - - -
24/02:00am 10.1 N 5 5 1020.1 - 0.0 - - - - - - -
24/01:30am 10.3 N 5 5 1020.2 - 0.0 - - - - - - -
24/01:00am 10.3 N 5 5 1020.5 - 0.0 - - - - - - -
24/12:30am 10.4 N 5 6 1020.6 - 0.0 - - - - - - -
24/12:00am 10.7 N 5 7 1021.1 - 0.0 - - - - - - -
 
Date/Time
EST
Temp

°C
Wind Pressure Rain
since 9am
mm
Weather Cloud Vis
km
Sea
Height
m
Swell
Dir
 
Speed
knots
Gust
knots
hPa Trend Height
m
Period
s
Dir
23/11:30pm 10.6 N 6 7 1021.6 - 0.0 - - - - - - -
23/11:00pm 10.8 N 5 7 1021.7 - 0.0 - - - - - - -
23/10:30pm 11.1 N 7 8 1022.0 - 0.0 - - - - - - -
23/10:00pm 11.1 NNW 7 8 1022.2 - 0.0 - - - - - - -
23/09:30pm 11.2 NNW 5 6 1022.2 - 0.0 - - - - - - -
23/09:00pm 11.2 WNW 3 4 1022.3 - 0.0 - - - - - - -
23/08:30pm 11.3 NW 2 3 1022.2 - 0.0 - - - - - - -
23/08:00pm 11.8 NW 2 4 1022.2 - 0.0 - - - - - - -
23/07:30pm 12.8 N 3 4 1022.1 - 0.0 - - - - - - -
23/07:00pm 12.9 NNE 6 7 1022.0 - 0.0 - - - - - - -
23/06:30pm 12.7 NNE 7 8 1021.9 - 0.0 - - - - - - -
23/06:00pm 12.8 NE 6 7 1021.7 - 0.0 - - - - - - -
23/05:30pm 12.8 NNE 5 6 1021.6 - 0.0 - - - - - - -
23/05:00pm 13.1 NE 5 6 1021.4 - 0.0 - - - - - - -
23/04:30pm 13.6 NNE 4 5 1021.6 - 0.0 - - - - - - -
23/04:00pm 14.3 NE 4 5 1021.5 - 0.0 - - - - - - -
23/03:30pm 15.4 ENE 4 5 1021.4 - 0.0 - - - - - - -
23/03:00pm 15.9 NE 4 5 1021.4 - 0.0 - - - - - - -
23/02:30pm 16.7 NE 3 4 1021.6 - 0.0 - - - - - - -
23/02:00pm 16.2 NE 3 4 1021.7 - 0.0 - - - - - - -
23/01:30pm 15.8 E 2 3 1022.0 - 0.0 - - - - - - -
23/01:00pm 16.6 SE 2 3 1022.4 - 0.0 - - - - - - -
23/12:30pm 15.5 SW 2 2 1022.9 - 0.0 - - - - - - -
23/12:00pm 14.3 WSW 2 4 1023.3 - 0.0 - - - - - - -
23/11:30am 13.7 W 5 6 1023.7 - 0.0 - - - - - - -
23/11:00am 13.2 W 7 8 1024.2 - 0.0 - - - - - - -
23/10:30am 12.4 W 9 11 1024.6 - 0.0 - - - - - - -
23/10:00am 11.6 W 11 12 1024.8 - 0.0 - - - - - - -
23/09:30am 10.9 W 13 15 1024.8 - 0.0 - - - - - - -
23/09:00am 10.5 W 12 14 1024.7 - 0.0 - - - - - - -
23/08:30am 9.9 W 10 12 1024.6 - 0.0 - - - - - - -
23/08:00am 9.2 W 10 11 1024.5 - 0.0 - - - - - - -
23/07:30am 9.2 W 11 13 1024.4 - 0.0 - - - - - - -
23/07:00am 9.1 W 10 11 1024.2 - 0.0 - - - - - - -
23/06:30am 9.0 W 10 11 1024.0 - 0.0 - - - - - - -
23/06:00am 9.1 W 11 13 1023.8 - 0.0 - - - - - - -
23/05:30am 8.8 W 10 12 1023.5 - 0.0 - - - - - - -
23/05:00am 8.9 W 10 12 1023.2 - 0.0 - - - - - - -
23/04:30am 9.1 W 11 13 1023.3 - 0.0 - - - - - - -
23/04:00am 9.3 W 11 13 1023.2 - 0.0 - - - - - - -
23/03:30am 9.3 W 12 13 1023.2 - 0.0 - - - - - - -
23/03:00am 9.5 W 12 14 1023.5 - 0.0 - - - - - - -
23/02:30am 9.4 W 13 14 1023.7 - 0.0 - - - - - - -
23/02:00am 9.3 W 13 16 1023.8 - 0.0 - - - - - - -
23/01:30am 9.8 W 14 16 1023.8 - 0.0 - - - - - - -
23/01:00am 10.0 W 12 14 1023.9 - 0.0 - - - - - - -
23/12:30am 10.1 W 11 14 1024.2 - 0.0 - - - - - - -
23/12:00am 10.1 W 10 12 1024.3 - 0.0 - - - - - - -
 
Date/Time
EST
Temp

°C
Wind Pressure Rain
since 9am
mm
Weather Cloud Vis
km
Sea
Height
m
Swell
Dir
 
Speed
knots
Gust
knots
hPa Trend Height
m
Period
s
Dir
22/11:30pm 10.0 W 10 12 1024.5 - 0.0 - - - - - - -
22/11:00pm 10.0 W 9 12 1024.6 - 0.0 - - - - - - -
22/10:30pm 10.5 W 11 13 1024.5 - 0.0 - - - - - - -
22/10:00pm 10.9 W 11 13 1024.5 - 0.0 - - - - - - -
22/09:30pm 11.0 W 11 12 1024.5 - 0.0 - - - - - - -
22/09:00pm 11.6 WSW 12 15 1024.5 - 0.0 - - - - - - -
22/08:30pm 11.6 WSW 11 13 1024.5 - 0.0 - - - - - - -
22/08:00pm 11.8 WSW 10 12 1024.6 - 0.0 - - - - - - -
22/07:30pm 11.9 WSW 9 11 1024.6 - 0.0 - - - - - - -
22/07:00pm 12.4 WSW 10 12 1024.6 - 0.0 - - - - - - -
22/06:30pm 12.4 SW 9 12 1024.5 - 0.0 - - - - - - -
22/06:00pm 12.5 SSW 11 13 1024.2 - 0.0 - - - - - - -
22/05:30pm 12.8 S 14 15 1023.9 - 0.0 - - - - - - -
22/05:00pm 12.9 SSW 13 15 1023.7 - 0.0 - - - - - - -
22/04:30pm 13.5 S 9 11 1023.6 - 0.0 - - - - - - -
22/04:00pm 13.6 S 9 11 1023.4 - 0.0 - - - - - - -
22/03:30pm 14.3 S 10 12 1023.3 - 0.0 - - - - - - -
22/03:00pm 14.4 S 11 13 1023.1 - 0.0 - - - - - - -
22/02:30pm 15.2 S 10 12 1023.1 - 0.0 - - - - - - -
22/02:00pm 16.0 S 8 10 1023.1 - 0.0 - - - - - - -
22/01:30pm 14.1 S 8 9 1023.2 - 0.0 - - - - - - -
22/01:00pm 14.0 SSW 7 9 1023.4 - 0.0 - - - - - - -
22/12:30pm 14.0 WSW 7 10 1023.8 - 0.0 - - - - - - -
22/12:00pm 13.7 WSW 9 11 1024.1 - 0.0 - - - - - - -
22/11:30am 13.2 W 10 11 1024.8 - 0.0 - - - - - - -
22/11:00am 12.4 W 10 13 1025.2 - 0.0 - - - - - - -
22/10:30am 11.7 W 12 13 1025.5 - 0.0 - - - - - - -
22/10:00am 11.1 W 12 14 1025.6 - 0.0 - - - - - - -
22/09:30am 10.6 W 12 13 1025.6 - 0.0 - - - - - - -
22/09:00am 9.9 W 12 13 1025.5 - 0.0 - - - - - - -

Other Formats:

Comma delimited format used in spreadsheet applications
http://www.bom.gov.au/fwo/IDN60701/IDN60701.94934.axf

JavaScript Object Notation format (JSON) in row-major order
http://www.bom.gov.au/fwo/IDN60701/IDN60701.94934.json